Time;durP1;ratioP1;P1;durP2;ratioP2;P2;SDS_P1;SDS_P2;PMS_P1;PMS_P2;Temp;Humidity;BMP_temperature;BMP_pressure;BME280_temperature;BME280_humidity;BME280_pressure;Samples;Min_cycle;Max_cycle;Signal;HPM_P1;HPM_P2
2021/04/14 00:00:55;;;;;;;43.88;27.23;;;4.90;99.90;;;;;;5117549;28;20026;-71
2021/04/14 00:03:24;;;;;;;32.55;19.67;;;4.90;99.90;;;;;;5115017;28;20494;-67
2021/04/14 00:05:52;;;;;;;17.65;11.75;;;4.90;99.90;;;;;;5114522;28;20381;-72
2021/04/14 00:08:19;;;;;;;32.17;19.70;;;5.00;99.90;;;;;;5115659;28;20032;-71
2021/04/14 00:10:47;;;;;;;27.45;15.65;;;5.00;99.90;;;;;;5116477;28;20095;-69
2021/04/14 00:13:19;;;;;;;72.47;38.90;;;5.00;99.90;;;;;;5116185;28;20040;-70
2021/04/14 00:15:51;;;;;;;52.30;26.27;;;5.00;99.90;;;;;;5116708;28;20111;-70
2021/04/14 00:18:18;;;;;;;52.90;27.77;;;5.00;99.90;;;;;;5116980;28;20485;-71
2021/04/14 00:20:45;;;;;;;77.00;34.88;;;5.00;99.90;;;;;;5116783;28;20028;-68
2021/04/14 00:23:11;;;;;;;62.75;30.63;;;4.90;99.90;;;;;;5115886;28;20047;-70
2021/04/14 00:25:42;;;;;;;45.05;24.35;;;5.00;99.90;;;;;;5116948;28;20453;-70
2021/04/14 00:28:09;;;;;;;36.75;20.10;;;4.90;99.90;;;;;;5116326;28;20084;-69
2021/04/14 00:30:35;;;;;;;48.10;25.38;;;4.90;99.90;;;;;;5116079;28;20015;-70
2021/04/14 00:33:01;;;;;;;64.18;31.05;;;5.00;99.90;;;;;;5116900;28;20452;-69
2021/04/14 00:35:28;;;;;;;39.50;19.35;;;5.00;99.90;;;;;;5116471;28;20026;-69
2021/04/14 00:37:54;;;;;;;38.97;18.88;;;5.00;99.90;;;;;;5116753;28;20019;-69
2021/04/14 00:40:28;;;;;;;32.95;16.88;;;4.90;99.90;;;;;;5115941;28;20077;-72
2021/04/14 00:42:55;;;;;;;41.70;20.10;;;5.00;99.90;;;;;;5120531;28;20072;-70
2021/04/14 00:45:22;;;;;;;42.05;21.25;;;5.00;99.90;;;;;;5117789;28;20020;-70
2021/04/14 00:47:48;;;;;;;18.58;10.68;;;5.00;99.90;;;;;;5118945;28;20110;-72
2021/04/14 00:50:19;;;;;;;22.50;11.95;;;5.00;99.90;;;;;;5118993;28;20485;-73
2021/04/14 00:52:45;;;;;;;37.47;19.75;;;4.90;99.90;;;;;;5118616;28;20173;-67
2021/04/14 00:55:21;;;;;;;31.50;16.60;;;5.00;99.90;;;;;;5118661;28;20144;-71
2021/04/14 00:57:47;;;;;;;26.52;14.23;;;4.90;99.90;;;;;;5119298;28;20032;-70
2021/04/14 01:00:37;;;;;;;23.55;13.43;;;5.00;99.90;;;;;;5118741;28;20104;-70
2021/04/14 01:03:06;;;;;;;26.73;13.90;;;5.00;99.90;;;;;;5117559;28;20097;-71
2021/04/14 01:05:35;;;;;;;33.10;18.15;;;5.10;99.90;;;;;;5119227;28;20012;-69
2021/04/14 01:08:01;;;;;;;20.10;12.43;;;5.00;99.90;;;;;;5119145;28;20027;-69
2021/04/14 01:10:27;;;;;;;25.38;14.98;;;5.00;99.90;;;;;;5119995;28;20076;-72
2021/04/14 01:12:54;;;;;;;23.00;14.07;;;5.10;99.90;;;;;;5119007;28;20120;-70
2021/04/14 01:15:26;;;;;;;32.88;17.58;;;5.00;99.90;;;;;;5117463;28;20452;-70
2021/04/14 01:17:52;;;;;;;24.05;13.85;;;5.00;99.90;;;;;;5120464;28;20036;-69
2021/04/14 01:20:18;;;;;;;27.98;15.75;;;5.00;99.90;;;;;;5119321;28;20039;-69
2021/04/14 01:22:44;;;;;;;25.48;14.55;;;5.00;99.90;;;;;;5117153;28;20035;-71
2021/04/14 01:25:12;;;;;;;32.45;15.63;;;4.90;99.90;;;;;;5115378;28;20023;-70
2021/04/14 01:27:38;;;;;;;47.95;23.02;;;5.00;99.90;;;;;;5117624;28;20031;-69
2021/04/14 01:30:30;;;;;;;18.13;9.77;;;5.00;99.90;;;;;;5118246;28;20106;-70
2021/04/14 01:32:57;;;;;;;22.83;11.38;;;4.90;99.90;;;;;;5116617;28;20035;-71
2021/04/14 01:35:27;;;;;;;37.20;15.25;;;4.90;99.90;;;;;;5117311;28;20027;-73
2021/04/14 01:37:54;;;;;;;60.75;24.63;;;4.90;99.90;;;;;;5116866;28;20550;-72
2021/04/14 01:40:22;;;;;;;39.15;16.52;;;4.70;99.90;;;;;;5117990;28;20016;-69
2021/04/14 01:42:48;;;;;;;39.25;18.38;;;4.80;99.90;;;;;;5118948;28;20469;-71
2021/04/14 01:45:20;;;;;;;34.88;16.92;;;4.80;99.90;;;;;;5118135;28;20106;-71
2021/04/14 01:47:46;;;;;;;22.88;12.95;;;4.80;99.90;;;;;;5118640;28;20481;-69
2021/04/14 01:50:12;;;;;;;25.08;12.52;;;4.80;99.90;;;;;;5119405;28;20550;-71
2021/04/14 01:52:38;;;;;;;18.73;10.45;;;4.90;99.90;;;;;;5119429;28;20016;-72
2021/04/14 01:55:05;;;;;;;30.65;15.93;;;4.90;99.90;;;;;;5119152;28;20016;-69
2021/04/14 01:57:32;;;;;;;25.45;14.18;;;4.70;99.90;;;;;;5117946;28;20024;-69
2021/04/14 01:59:58;;;;;;;39.15;20.67;;;4.70;99.90;;;;;;5117467;28;20054;-71
2021/04/14 02:02:24;;;;;;;25.08;13.32;;;4.60;99.90;;;;;;5116128;28;20019;-70
2021/04/14 02:04:50;;;;;;;24.60;12.50;;;4.60;99.90;;;;;;5117853;28;20075;-70
2021/04/14 02:07:16;;;;;;;19.38;11.70;;;4.60;99.90;;;;;;5119541;28;20016;-69
2021/04/14 02:09:42;;;;;;;71.95;30.85;;;4.70;99.90;;;;;;5118389;28;20393;-70
2021/04/14 02:12:10;;;;;;;21.65;10.63;;;4.60;99.90;;;;;;5118922;28;20431;-69
2021/04/14 02:14:36;;;;;;;17.67;10.10;;;4.50;99.90;;;;;;5119088;28;20403;-70
2021/04/14 02:17:03;;;;;;;23.85;11.98;;;4.60;99.90;;;;;;5118475;28;20027;-69
2021/04/14 02:19:28;;;;;;;37.10;16.48;;;4.60;99.90;;;;;;5115807;28;20114;-70
2021/04/14 02:21:54;;;;;;;22.67;11.45;;;4.60;99.90;;;;;;5115498;28;20047;-69
2021/04/14 02:24:21;;;;;;;26.85;13.07;;;4.70;99.90;;;;;;5116826;28;20504;-72
2021/04/14 02:26:47;;;;;;;23.40;11.60;;;4.70;99.90;;;;;;5117140;28;20399;-72
2021/04/14 02:29:13;;;;;;;27.05;14.65;;;4.60;99.90;;;;;;5114497;28;20024;-72
2021/04/14 02:31:39;;;;;;;28.48;13.98;;;4.60;99.90;;;;;;5117308;28;20031;-69
2021/04/14 02:34:09;;;;;;;26.17;12.95;;;4.60;99.90;;;;;;5118319;28;20030;-70
2021/04/14 02:36:35;;;;;;;35.90;21.13;;;4.50;99.90;;;;;;5118074;28;20503;-69
2021/04/14 02:39:02;;;;;;;23.83;15.82;;;4.60;99.90;;;;;;5116692;28;20020;-71
2021/04/14 02:41:28;;;;;;;25.13;15.55;;;4.60;99.90;;;;;;5116955;28;20019;-69
2021/04/14 02:43:54;;;;;;;26.67;13.65;;;4.50;99.90;;;;;;5117476;28;20011;-69
2021/04/14 02:46:21;;;;;;;21.45;12.25;;;4.70;99.90;;;;;;5115974;28;20369;-72
2021/04/14 02:48:50;;;;;;;20.10;12.13;;;4.60;99.90;;;;;;5118327;28;20020;-69
2021/04/14 02:51:17;;;;;;;23.42;12.80;;;4.60;99.90;;;;;;5116896;28;20150;-70
2021/04/14 02:53:43;;;;;;;39.30;18.55;;;4.70;99.90;;;;;;5118179;28;20465;-71
2021/04/14 02:56:09;;;;;;;20.15;12.80;;;4.70;99.90;;;;;;5117889;28;20019;-71
2021/04/14 02:58:35;;;;;;;11.45;8.35;;;4.50;99.90;;;;;;5118433;28;20115;-69
2021/04/14 03:01:02;;;;;;;17.98;11.43;;;4.40;99.90;;;;;;5118999;28;20015;-72
2021/04/14 03:04:09;;;;;;;16.95;10.48;;;4.40;99.90;;;;;;5115919;28;20501;-71
2021/04/14 03:06:35;;;;;;;27.40;15.32;;;4.30;99.90;;;;;;5116580;28;20023;-69
2021/04/14 03:09:02;;;;;;;26.63;14.13;;;4.30;99.90;;;;;;5120704;28;20027;-72
2021/04/14 03:11:28;;;;;;;25.55;15.40;;;4.30;99.90;;;;;;5121146;28;20051;-71
2021/04/14 03:13:55;;;;;;;18.13;10.98;;;4.40;99.90;;;;;;5122598;28;20024;-69
2021/04/14 03:16:22;;;;;;;17.73;10.18;;;4.40;99.90;;;;;;5121280;28;20062;-71
2021/04/14 03:18:48;;;;;;;18.13;11.73;;;4.40;99.90;;;;;;5121804;27;20020;-69
2021/04/14 03:21:14;;;;;;;11.95;8.60;;;4.30;99.90;;;;;;5122177;28;20023;-70
2021/04/14 03:23:40;;;;;;;22.20;13.70;;;4.50;99.90;;;;;;5121439;28;20011;-69
2021/04/14 03:26:06;;;;;;;20.00;12.60;;;4.40;99.90;;;;;;5120686;28;20476;-69
2021/04/14 03:28:31;;;;;;;12.95;9.40;;;4.40;99.90;;;;;;5121518;28;20035;-72
2021/04/14 03:30:57;;;;;;;19.60;13.40;;;4.60;99.90;;;;;;5118141;28;20031;-72
2021/04/14 03:33:23;;;;;;;24.52;15.85;;;4.60;99.90;;;;;;5120779;28;20027;-72
2021/04/14 03:35:49;;;;;;;46.08;28.35;;;4.60;99.90;;;;;;5120091;27;20098;-72
2021/04/14 03:38:15;;;;;;;25.25;17.35;;;4.60;99.90;;;;;;5120310;28;20031;-72
2021/04/14 03:40:41;;;;;;;21.25;14.30;;;4.50;99.90;;;;;;5119074;28;20016;-72
2021/04/14 03:43:07;;;;;;;22.52;13.73;;;4.50;99.90;;;;;;5120003;28;20073;-72
2021/04/14 03:45:44;;;;;;;18.60;10.68;;;4.60;99.90;;;;;;5119012;28;20026;-69
2021/04/14 03:48:11;;;;;;;27.42;14.25;;;4.60;99.90;;;;;;5120315;28;20023;-69
2021/04/14 03:50:38;;;;;;;20.88;10.75;;;4.60;99.90;;;;;;5120626;28;20020;-70
2021/04/14 03:53:23;;;;;;;19.83;10.05;;;4.60;99.90;;;;;;5120686;28;20019;-70
2021/04/14 03:56:01;;;;;;;26.20;13.18;;;4.60;99.90;;;;;;5120158;27;20027;-71
2021/04/14 03:58:28;;;;;;;14.00;8.30;;;4.50;99.90;;;;;;5120396;28;20027;-72
2021/04/14 04:00:56;;;;;;;15.43;8.73;;;4.60;99.90;;;;;;5119237;28;20038;-69
2021/04/14 04:03:23;;;;;;;12.48;7.80;;;4.50;99.90;;;;;;5120109;28;20039;-72
2021/04/14 04:05:50;;;;;;;16.65;9.25;;;4.60;99.90;;;;;;5120344;28;20028;-70
2021/04/14 04:08:16;;;;;;;16.52;8.88;;;4.60;99.90;;;;;;5119425;28;20114;-71
2021/04/14 04:10:42;;;;;;;14.13;8.18;;;4.50;99.90;;;;;;5119403;28;20016;-72
2021/04/14 04:13:08;;;;;;;14.32;8.60;;;4.50;99.90;;;;;;5119114;28;20031;-72
2021/04/14 04:15:37;;;;;;;13.38;7.70;;;4.60;99.90;;;;;;5119524;28;20023;-72
2021/04/14 04:18:04;;;;;;;10.73;7.07;;;4.60;99.90;;;;;;5119027;28;20073;-69
2021/04/14 04:20:30;;;;;;;21.60;11.55;;;4.50;99.90;;;;;;5119004;28;20096;-70
2021/04/14 04:22:57;;;;;;;18.42;11.07;;;4.50;99.90;;;;;;5119633;28;20031;-70
2021/04/14 04:25:22;;;;;;;13.85;8.57;;;4.50;99.90;;;;;;5119397;28;20054;-70
2021/04/14 04:27:48;;;;;;;19.70;10.98;;;4.40;99.90;;;;;;5119345;27;20043;-72
2021/04/14 04:30:15;;;;;;;17.70;10.10;;;4.50;99.90;;;;;;5120386;28;20051;-71
2021/04/14 04:32:41;;;;;;;10.63;7.28;;;4.50;99.90;;;;;;5120665;28;20072;-73
2021/04/14 04:35:09;;;;;;;9.98;6.30;;;4.60;99.90;;;;;;5118428;28;20023;-70
2021/04/14 04:37:34;;;;;;;10.45;7.07;;;4.60;99.90;;;;;;5120181;28;20076;-70
2021/04/14 04:40:02;;;;;;;9.48;6.78;;;4.40;99.90;;;;;;5118972;28;20110;-71
2021/04/14 04:42:28;;;;;;;10.05;7.28;;;4.50;99.90;;;;;;5118787;28;20504;-72
2021/04/14 04:44:54;;;;;;;9.55;6.65;;;4.50;99.90;;;;;;5119311;28;20035;-69
2021/04/14 04:47:20;;;;;;;10.35;7.93;;;4.50;99.90;;;;;;5118963;28;20032;-70
2021/04/14 04:49:46;;;;;;;14.80;10.52;;;4.60;99.90;;;;;;5120150;28;20531;-71
2021/04/14 04:52:12;;;;;;;9.30;7.05;;;4.50;99.90;;;;;;5121031;28;20106;-70
2021/04/14 04:54:38;;;;;;;11.85;8.48;;;4.50;99.90;;;;;;5119151;28;20063;-72
2021/04/14 04:57:04;;;;;;;17.55;11.68;;;4.60;99.90;;;;;;5118545;28;20032;-70
2021/04/14 04:59:30;;;;;;;15.40;10.90;;;4.70;99.90;;;;;;5119074;28;20026;-69
2021/04/14 05:02:00;;;;;;;9.90;7.30;;;4.70;99.90;;;;;;5119486;28;20024;-71
2021/04/14 05:04:27;;;;;;;8.88;6.10;;;4.70;99.90;;;;;;5117789;28;20097;-70
2021/04/14 05:06:53;;;;;;;11.73;8.30;;;4.60;99.90;;;;;;5118653;28;20020;-71
2021/04/14 05:09:20;;;;;;;9.10;6.93;;;4.60;99.90;;;;;;5119380;28;20018;-69
2021/04/14 05:11:49;;;;;;;11.88;7.43;;;4.70;99.90;;;;;;5119320;28;20120;-72
2021/04/14 05:14:15;;;;;;;15.10;9.55;;;4.80;99.90;;;;;;5118401;28;20024;-69
2021/04/14 05:16:41;;;;;;;13.43;9.38;;;4.70;99.90;;;;;;5118695;28;20377;-70
2021/04/14 05:19:07;;;;;;;11.45;8.52;;;4.70;99.90;;;;;;5119320;28;20027;-69
2021/04/14 05:21:39;;;;;;;11.57;8.25;;;4.70;99.90;;;;;;5119619;28;20020;-69
2021/04/14 05:24:05;;;;;;;13.25;9.48;;;4.70;99.90;;;;;;5118127;28;20053;-70
2021/04/14 05:26:31;;;;;;;18.08;11.27;;;4.70;99.90;;;;;;5118333;28;20024;-72
2021/04/14 05:28:58;;;;;;;15.57;10.52;;;4.70;99.90;;;;;;5117541;28;20059;-70
2021/04/14 05:31:29;;;;;;;18.55;12.13;;;4.80;99.90;;;;;;5117126;28;20031;-69
2021/04/14 05:33:57;;;;;;;18.17;11.35;;;4.80;99.90;;;;;;5118692;28;20103;-71
2021/04/14 05:36:23;;;;;;;15.02;9.82;;;4.90;99.90;;;;;;5116981;28;20035;-71
2021/04/14 05:38:50;;;;;;;15.23;10.13;;;4.90;99.90;;;;;;5118130;28;20015;-72
2021/04/14 05:41:16;;;;;;;13.50;8.98;;;5.00;99.90;;;;;;5118730;28;20084;-71
2021/04/14 05:43:42;;;;;;;14.07;8.80;;;5.00;99.90;;;;;;5116938;28;20024;-71
2021/04/14 05:46:12;;;;;;;23.73;12.32;;;5.00;99.90;;;;;;5117774;28;20019;-71
2021/04/14 05:48:39;;;;;;;23.60;13.63;;;4.90;99.90;;;;;;5118942;28;20030;-70
2021/04/14 05:51:06;;;;;;;20.63;12.65;;;4.90;99.90;;;;;;5116131;28;20031;-71
2021/04/14 05:53:34;;;;;;;21.05;12.43;;;4.90;99.90;;;;;;5115428;28;20470;-71
2021/04/14 05:56:00;;;;;;;22.60;13.85;;;4.90;99.90;;;;;;5115688;28;20473;-71
2021/04/14 05:58:27;;;;;;;22.00;14.25;;;4.90;99.90;;;;;;5114692;28;20114;-70
2021/04/14 06:00:54;;;;;;;19.75;13.02;;;5.00;99.90;;;;;;5113497;28;20079;-72
2021/04/14 06:03:22;;;;;;;15.57;10.38;;;5.00;99.90;;;;;;5116784;28;20075;-69
2021/04/14 06:05:54;;;;;;;15.70;9.63;;;5.00;99.90;;;;;;5115334;28;20016;-72
2021/04/14 06:08:20;;;;;;;28.40;14.73;;;5.00;99.90;;;;;;5117644;28;20027;-70
2021/04/14 06:10:46;;;;;;;31.98;16.38;;;5.10;99.90;;;;;;5115363;28;20024;-72
2021/04/14 06:13:12;;;;;;;24.50;14.95;;;5.10;99.90;;;;;;5117043;28;20043;-70
2021/04/14 06:15:38;;;;;;;20.63;12.93;;;5.10;99.90;;;;;;5115510;28;20035;-70
2021/04/14 06:18:05;;;;;;;30.67;15.88;;;5.00;99.90;;;;;;5117006;28;20020;-69
2021/04/14 06:20:33;;;;;;;18.17;10.95;;;5.00;99.90;;;;;;5115131;28;20012;-68
2021/04/14 06:23:02;;;;;;;16.27;10.82;;;5.00;99.90;;;;;;5116447;28;20020;-70
2021/04/14 06:25:35;;;;;;;20.38;12.15;;;5.10;99.90;;;;;;5115983;28;20047;-69
2021/04/14 06:28:07;;;;;;;16.27;11.15;;;5.10;99.90;;;;;;5117427;28;20081;-72
2021/04/14 06:30:38;;;;;;;17.63;10.52;;;5.10;99.90;;;;;;5117350;28;20028;-72
2021/04/14 06:33:09;;;;;;;14.00;9.45;;;5.10;99.90;;;;;;5117068;28;20030;-72
2021/04/14 06:35:35;;;;;;;12.80;7.07;;;5.20;99.90;;;;;;5114791;28;20034;-70
2021/04/14 06:38:04;;;;;;;11.55;8.05;;;5.00;99.90;;;;;;5116925;28;20094;-72
2021/04/14 06:43:34;;;;;;;74.57;38.13;;;5.00;99.90;;;;;;5116693;28;20106;-69
2021/04/14 06:46:06;;;;;;;182.60;95.28;;;5.10;99.90;;;;;;5116492;28;20019;-70
2021/04/14 06:48:51;;;;;;;115.10;63.55;;;5.10;99.90;;;;;;5116075;28;20026;-70
2021/04/14 06:51:39;;;;;;;45.13;30.60;;;5.10;99.90;;;;;;5114477;28;20023;-71
2021/04/14 06:54:15;;;;;;;18.42;12.95;;;5.10;99.90;;;;;;5115545;28;20564;-70
2021/04/14 06:56:42;;;;;;;41.67;22.55;;;5.00;99.90;;;;;;5116928;28;20020;-69
2021/04/14 06:59:15;;;;;;;56.15;31.35;;;4.90;99.90;;;;;;5116477;28;20031;-72
2021/04/14 07:01:50;;;;;;;44.28;24.00;;;5.00;99.90;;;;;;5116634;28;20032;-72
2021/04/14 07:04:36;;;;;;;20.95;12.35;;;5.00;99.90;;;;;;5117348;28;20043;-71
2021/04/14 07:07:05;;;;;;;25.88;14.35;;;5.00;99.90;;;;;;5117073;28;20536;-72
2021/04/14 07:09:35;;;;;;;10.68;7.25;;;5.10;99.90;;;;;;5117144;28;20546;-71
2021/04/14 07:12:05;;;;;;;15.65;9.88;;;5.00;99.90;;;;;;5116621;28;20373;-71
2021/04/14 07:14:30;;;;;;;19.02;11.85;;;5.10;99.90;;;;;;5117410;28;20088;-70
2021/04/14 07:16:59;;;;;;;27.52;16.38;;;5.00;99.90;;;;;;5118368;28;20023;-69
2021/04/14 07:19:31;;;;;;;16.38;9.75;;;5.00;99.90;;;;;;5118283;28;20015;-69
2021/04/14 07:22:09;;;;;;;27.13;14.82;;;5.00;99.90;;;;;;5117175;28;20033;-71
2021/04/14 07:24:50;;;;;;;23.65;12.38;;;5.10;99.90;;;;;;5115337;28;20015;-73
2021/04/14 07:27:40;;;;;;;23.35;12.50;;;5.10;99.90;;;;;;5116858;28;20358;-71
2021/04/14 07:30:21;;;;;;;31.50;15.07;;;5.10;99.90;;;;;;5117518;28;20035;-70
2021/04/14 07:33:06;;;;;;;28.52;15.95;;;5.10;99.90;;;;;;5116030;28;20027;-67
2021/04/14 07:35:46;;;;;;;16.23;10.10;;;5.10;99.90;;;;;;5113852;28;20039;-70
2021/04/14 07:38:18;;;;;;;23.52;15.20;;;5.10;99.90;;;;;;5113092;28;20031;-75
2021/04/14 07:40:47;;;;;;;14.60;8.38;;;5.20;99.90;;;;;;5114202;28;20039;-72
2021/04/14 07:43:29;;;;;;;111.50;60.80;;;5.20;99.90;;;;;;5115350;28;20022;-71
2021/04/14 07:45:56;;;;;;;157.80;93.93;;;5.20;99.90;;;;;;5115756;28;20024;-71
2021/04/14 07:48:29;;;;;;;40.70;32.53;;;5.20;99.90;;;;;;5115586;28;20103;-69
2021/04/14 07:51:00;;;;;;;37.05;22.60;;;5.20;99.90;;;;;;5116137;28;20028;-72
2021/04/14 07:53:38;;;;;;;34.67;20.40;;;5.20;99.90;;;;;;5116325;28;20441;-73
2021/04/14 07:56:08;;;;;;;63.40;35.08;;;5.30;99.90;;;;;;5118669;28;20366;-76
2021/04/14 07:58:35;;;;;;;43.60;25.75;;;5.20;99.90;;;;;;5118634;28;20023;-70
2021/04/14 08:01:24;;;;;;;30.40;19.00;;;5.30;99.90;;;;;;5119112;28;20024;-71
2021/04/14 08:03:51;;;;;;;35.00;21.42;;;5.20;99.90;;;;;;5119335;28;20074;-72
2021/04/14 08:06:29;;;;;;;14.77;10.50;;;5.20;99.90;;;;;;5120200;28;20016;-69
2021/04/14 08:08:55;;;;;;;22.25;14.15;;;5.20;99.90;;;;;;5120529;28;20072;-70
2021/04/14 08:11:27;;;;;;;43.45;26.67;;;5.30;99.90;;;;;;5118736;28;20103;-68
2021/04/14 08:13:54;;;;;;;40.40;24.90;;;5.30;99.90;;;;;;5117784;28;20031;-71
2021/04/14 08:16:35;;;;;;;29.38;19.52;;;5.30;99.90;;;;;;5115547;28;20172;-69
2021/04/14 08:19:17;;;;;;;32.60;23.58;;;5.30;99.90;;;;;;5112744;28;20086;-71
2021/04/14 08:22:27;;;;;;;44.20;22.80;;;5.40;99.90;;;;;;5112769;27;20594;-69
2021/04/14 08:24:55;;;;;;;58.88;33.42;;;5.40;99.90;;;;;;5084907;28;20552;-71
2021/04/14 08:27:30;;;;;;;33.00;21.73;;;5.40;99.90;;;;;;5098650;28;20016;-71
2021/04/14 08:30:23;;;;;;;61.67;32.22;;;5.40;99.90;;;;;;5097630;28;20020;-70
2021/04/14 08:32:52;;;;;;;22.77;14.93;;;5.20;99.90;;;;;;5099885;28;20099;-68
2021/04/14 08:35:39;;;;;;;25.55;16.88;;;5.40;99.90;;;;;;5118411;28;20024;-70
2021/04/14 08:38:10;;;;;;;24.00;15.52;;;5.30;99.90;;;;;;5119295;28;20024;-71
2021/04/14 08:40:49;;;;;;;29.40;20.33;;;5.40;99.90;;;;;;5117316;28;20032;-69
2021/04/14 08:43:26;;;;;;;17.13;12.35;;;5.40;99.90;;;;;;5114173;28;20377;-69
2021/04/14 08:45:54;;;;;;;18.85;11.70;;;5.30;99.90;;;;;;5113991;28;20436;-70
2021/04/14 08:48:33;;;;;;;39.95;21.55;;;5.40;99.90;;;;;;5113892;28;20030;-69
2021/04/14 08:51:04;;;;;;;20.23;13.60;;;5.40;99.90;;;;;;5114027;28;20106;-69
2021/04/14 08:53:36;;;;;;;22.45;15.68;;;5.60;99.90;;;;;;5114035;28;20020;-69
2021/04/14 08:56:03;;;;;;;32.70;21.05;;;5.50;99.90;;;;;;5116044;28;20023;-69
2021/04/14 08:58:30;;;;;;;20.13;13.07;;;5.40;99.90;;;;;;5118888;28;20023;-68
2021/04/14 09:00:58;;;;;;;30.15;19.02;;;5.40;99.90;;;;;;5118598;28;20027;-72
2021/04/14 09:03:27;;;;;;;27.33;18.65;;;5.40;99.90;;;;;;5116987;28;20047;-70
2021/04/14 09:05:53;;;;;;;32.20;20.63;;;5.40;99.90;;;;;;5115580;28;20012;-69
2021/04/14 09:08:22;;;;;;;27.77;18.35;;;5.40;99.90;;;;;;5118318;28;20024;-69
2021/04/14 09:10:57;;;;;;;19.25;13.77;;;5.50;99.90;;;;;;5119546;28;20024;-71
2021/04/14 09:13:29;;;;;;;;;;;5.50;99.90;;;;;;5118747;28;20110;-70
2021/04/14 09:15:58;;;;;;;35.05;23.23;;;5.50;99.90;;;;;;5116860;28;19914;-71
2021/04/14 09:18:34;;;;;;;31.70;21.35;;;5.50;99.90;;;;;;5118356;28;20031;-70
2021/04/14 09:21:09;;;;;;;50.53;32.55;;;5.50;99.90;;;;;;5117966;28;20019;-70
2021/04/14 09:23:35;;;;;;;;;;;5.50;99.90;;;;;;5117800;28;20019;-73
2021/04/14 09:26:02;;;;;;;16.48;12.20;;;5.40;99.90;;;;;;5119201;28;20399;-69
2021/04/14 09:28:36;;;;;;;36.28;18.95;;;5.30;99.90;;;;;;5116505;28;20482;-69
2021/04/14 09:31:14;;;;;;;42.88;27.98;;;5.40;99.90;;;;;;5117990;28;20374;-71
2021/04/14 09:33:46;;;;;;;23.60;16.00;;;5.40;99.90;;;;;;5117849;28;20035;-70
2021/04/14 09:36:13;;;;;;;38.30;26.08;;;5.30;99.90;;;;;;5117819;28;20473;-70
2021/04/14 09:38:50;;;;;;;28.55;20.38;;;5.30;99.90;;;;;;5116495;27;20016;-72
2021/04/14 09:41:24;;;;;;;29.02;20.05;;;5.40;99.90;;;;;;5117778;28;20051;-69
2021/04/14 09:43:52;;;;;;;;;;;5.40;99.90;;;;;;5119403;28;20511;-70
2021/04/14 09:46:39;;;;;;;26.48;17.88;;;5.50;99.90;;;;;;5119373;28;19903;-71
2021/04/14 09:49:17;;;;;;;18.30;13.70;;;5.50;99.90;;;;;;5118037;28;20161;-69
2021/04/14 09:51:56;;;;;;;17.50;12.40;;;5.40;99.90;;;;;;5115855;28;20051;-68
2021/04/14 09:54:28;;;;;;;18.83;13.13;;;5.50;99.90;;;;;;5116878;28;20039;-72
2021/04/14 09:56:55;;;;;;;19.50;13.38;;;5.30;99.90;;;;;;5116464;28;20094;-69
2021/04/14 09:59:36;;;;;;;32.17;22.90;;;5.40;99.90;;;;;;5114467;28;20032;-70
2021/04/14 10:02:07;;;;;;;23.65;15.35;;;5.50;99.90;;;;;;5116224;28;20115;-72
2021/04/14 10:04:36;;;;;;;24.35;15.75;;;5.50;99.90;;;;;;5114332;28;20039;-69
2021/04/14 10:07:12;;;;;;;30.08;16.20;;;5.50;99.90;;;;;;5117428;28;20092;-69
2021/04/14 10:09:38;;;;;;;43.50;22.73;;;5.50;99.90;;;;;;5114502;28;20168;-69
2021/04/14 10:12:16;;;;;;;63.65;30.50;;;5.50;99.90;;;;;;5114956;28;20536;-70
2021/04/14 10:14:51;;;;;;;26.75;17.13;;;5.50;99.90;;;;;;5112639;28;20019;-69
2021/04/14 10:17:20;;;;;;;21.17;12.98;;;5.50;99.90;;;;;;5115495;28;20032;-72
2021/04/14 10:20:02;;;;;;;20.48;13.27;;;5.40;99.90;;;;;;5114981;28;20027;-69
2021/04/14 10:22:29;;;;;;;36.85;22.27;;;5.40;99.90;;;;;;5115573;28;20037;-71
2021/04/14 10:25:04;;;;;;;28.02;16.67;;;5.40;99.90;;;;;;5115440;28;20020;-68
2021/04/14 10:27:31;;;;;;;25.05;14.93;;;5.50;99.90;;;;;;5115854;28;20016;-69
2021/04/14 10:30:00;;;;;;;27.48;16.92;;;5.50;99.90;;;;;;5116483;28;20094;-71
2021/04/14 10:32:29;;;;;;;30.13;18.92;;;5.50;99.90;;;;;;5116856;28;20039;-69
2021/04/14 10:35:07;;;;;;;31.73;19.17;;;5.60;99.90;;;;;;5115233;28;20102;-71
2021/04/14 10:37:44;;;;;;;28.95;17.05;;;5.70;99.90;;;;;;5116889;28;20031;-70
2021/04/14 10:40:19;;;;;;;26.10;16.65;;;5.70;99.90;;;;;;5117074;28;20102;-72
2021/04/14 10:42:49;;;;;;;58.17;31.60;;;5.70;99.90;;;;;;5116265;28;20028;-70
2021/04/14 10:45:18;;;;;;;48.88;27.35;;;5.80;99.90;;;;;;5116727;28;20488;-70
2021/04/14 10:47:46;;;;;;;84.13;44.42;;;5.90;99.90;;;;;;5115725;28;20031;-70
2021/04/14 10:50:25;;;;;;;98.93;56.50;;;5.70;99.90;;;;;;5105290;28;20155;-69
2021/04/14 10:53:07;;;;;;;34.03;20.35;;;5.80;99.90;;;;;;5100458;28;20099;-72
2021/04/14 10:55:54;;;;;;;108.20;68.97;;;5.70;99.90;;;;;;5096268;28;20032;-72
2021/04/14 10:58:24;;;;;;;81.85;48.28;;;5.80;99.90;;;;;;5098801;28;20044;-69
2021/04/14 11:00:52;;;;;;;38.10;22.67;;;5.80;99.90;;;;;;5114967;28;20079;-72
2021/04/14 11:03:21;;;;;;;45.20;28.17;;;5.80;99.90;;;;;;5095211;28;20047;-69
2021/04/14 11:05:57;;;;;;;39.75;26.58;;;5.80;99.90;;;;;;5096093;28;20101;-68
2021/04/14 11:08:26;;;;;;;63.17;39.55;;;5.80;99.90;;;;;;5096579;28;20411;-73
2021/04/14 11:10:55;;;;;;;27.38;17.80;;;5.80;99.90;;;;;;5093173;28;20377;-69
2021/04/14 11:13:28;;;;;;;17.52;12.15;;;5.80;99.90;;;;;;5091378;28;20113;-71
2021/04/14 11:15:54;;;;;;;24.27;15.93;;;5.90;99.90;;;;;;5090456;28;20397;-71
2021/04/14 11:18:33;;;;;;;72.50;48.60;;;5.80;99.90;;;;;;5092391;28;20032;-68
2021/04/14 11:21:08;;;;;;;77.72;47.97;;;5.90;99.90;;;;;;5091548;28;20424;-69
2021/04/14 11:23:37;;;;;;;33.65;18.83;;;6.00;99.90;;;;;;5090220;28;20401;-69
2021/04/14 11:26:20;;;;;;;33.72;22.83;;;6.00;99.90;;;;;;5093440;28;20091;-68
2021/04/14 11:28:54;;;;;;;132.20;73.45;;;6.10;99.90;;;;;;5098658;28;20099;-71
2021/04/14 11:31:38;;;;;;;49.08;26.42;;;6.20;99.90;;;;;;5101403;28;20032;-68
2021/04/14 11:34:19;;;;;;;39.00;24.50;;;6.30;99.90;;;;;;5099867;28;20032;-71
2021/04/14 11:36:58;;;;;;;26.60;17.88;;;6.30;99.90;;;;;;5100491;28;20020;-71
2021/04/14 11:39:25;;;;;;;17.35;13.05;;;6.40;99.90;;;;;;5101283;28;20032;-69
2021/04/14 11:42:13;;;;;;;32.35;20.65;;;6.40;99.90;;;;;;5101473;28;20046;-71
2021/04/14 11:44:55;;;;;;;24.05;16.45;;;6.30;99.90;;;;;;5101006;28;20020;-68
2021/04/14 11:47:29;;;;;;;43.97;28.45;;;6.40;99.90;;;;;;5100711;28;20046;-71
2021/04/14 11:49:56;;;;;;;25.85;17.40;;;6.40;99.90;;;;;;5100082;28;20020;-71
2021/04/14 11:52:33;;;;;;;39.70;26.25;;;6.40;99.90;;;;;;5101472;28;20044;-68
2021/04/14 11:55:21;;;;;;;40.78;22.33;;;6.50;99.90;;;;;;5099819;28;20016;-71
2021/04/14 11:58:02;;;;;;;31.40;16.65;;;;;;;;;;5098812;28;20024;-69
2021/04/14 12:00:48;;;;;;;28.08;16.73;;;6.40;99.90;;;;;;5099228;28;20111;-69
2021/04/14 12:03:20;;;;;;;55.13;28.27;;;6.50;99.90;;;;;;5097716;28;20456;-69
2021/04/14 12:05:51;;;;;;;29.83;17.92;;;6.60;99.90;;;;;;5098173;28;20020;-72
2021/04/14 12:08:17;;;;;;;25.90;15.77;;;6.50;99.90;;;;;;5098010;28;20036;-69
2021/04/14 12:10:43;;;;;;;35.17;21.33;;;6.60;99.90;;;;;;5098101;28;20039;-68
2021/04/14 12:13:09;;;;;;;27.77;17.63;;;6.50;99.90;;;;;;5097688;28;20021;-69
2021/04/14 12:15:35;;;;;;;23.08;14.90;;;6.60;99.90;;;;;;5097185;28;20373;-68
2021/04/14 12:18:01;;;;;;;30.77;19.10;;;6.50;99.90;;;;;;5097281;28;20039;-72
2021/04/14 12:20:27;;;;;;;25.15;16.73;;;6.60;99.90;;;;;;5099654;28;20020;-71
2021/04/14 12:22:53;;;;;;;26.02;17.63;;;6.70;99.90;;;;;;5100404;28;20028;-68
2021/04/14 12:25:20;;;;;;;36.42;22.42;;;6.50;99.90;;;;;;5099790;28;20061;-71
2021/04/14 12:27:46;;;;;;;25.90;16.27;;;6.50;99.90;;;;;;5100855;28;20081;-69
2021/04/14 12:30:14;;;;;;;63.10;35.55;;;6.50;99.90;;;;;;5100080;28;20496;-71
2021/04/14 12:32:41;;;;;;;49.08;27.73;;;6.30;99.90;;;;;;5100453;28;20024;-71
2021/04/14 12:35:08;;;;;;;52.40;27.92;;;6.40;99.90;;;;;;5099914;28;20056;-68
2021/04/14 12:37:34;;;;;;;124.38;52.78;;;6.20;99.90;;;;;;5099169;28;20028;-68
2021/04/14 12:40:00;;;;;;;115.95;48.72;;;6.30;99.90;;;;;;5100299;28;20045;-68
2021/04/14 12:42:30;;;;;;;96.25;40.95;;;6.20;99.90;;;;;;5100497;28;20051;-71
2021/04/14 12:44:56;;;;;;;164.70;63.67;;;6.30;99.90;;;;;;5100364;28;20024;-70
2021/04/14 12:47:25;;;;;;;60.08;30.27;;;6.40;99.90;;;;;;5099450;28;20053;-71
2021/04/14 12:49:53;;;;;;;77.07;41.72;;;6.40;99.90;;;;;;5099700;28;20032;-68
2021/04/14 12:52:46;;;;;;;35.35;23.13;;;6.30;99.90;;;;;;5099480;28;20088;-71
2021/04/14 12:55:26;;;;;;;38.97;21.58;;;6.20;99.90;;;;;;5092492;28;20044;-71
2021/04/14 12:57:57;;;;;;;29.45;19.40;;;6.30;99.90;;;;;;5098788;28;20036;-69
2021/04/14 13:00:26;;;;;;;35.30;24.50;;;6.30;99.90;;;;;;5099056;28;20034;-71